メインページ
METAR-TAF:

METAR-TAF

空港 :

アムステルダム・スキポール空港

アムステルダム, オランダ

緯度: 52-18N, 経度: 004-46E, 海抜: -4m

現時点の気象観測

当レポートは29分前の23:25(UTC)に作成
南東の風 7kt
気温 6°C
湿度 100%
気圧 1024 hPa
視程: 9000m

METAR: EHAM 142325Z 14007KT 9000 NSC 06/06 Q1024 NOSIG

時間: 00:54 (23:54 UTC)

予報

当レポートは45分前の23:09(UTC)に作成
予報は15日の 00時(UTC)から 16日の 06時(UTC)まで有効
南東の風 6kt
視程10km以上
1,500メートル以下は雲なし、積乱雲なし
15日の 00時(UTC)から 15日の 02時(UTC)まで徐々に
視程: 6000m
15日の 02時(UTC)から 15日の 04時(UTC)まで徐々に
視程: 4000m
確率 30%
15日の 04時(UTC)から 15日の 11時(UTC)まで
視程: 2000m
高度400ftの千切れ雲あり
15日の 08時(UTC)から 15日の 10時(UTC)まで徐々に
視程: 6000m
15日の 10時(UTC)から 15日の 12時(UTC)まで徐々に
視程: 9000m
15日の 17時(UTC)から 15日の 20時(UTC)まで徐々に
視程: 7000m
15日の 20時(UTC)から 15日の 22時(UTC)まで徐々に
視程: 4000m
靄, 浅い霧
15日の 22時(UTC)から 16日の 01時(UTC)まで徐々に
視程: 2000m
散在霧
確率 30%
16日の 00時(UTC)から 16日の 06時(UTC)まで
視程: 0400m
高度100ftの

TAF: EHAM 142309Z 1500/1606 14006KT CAVOK BECMG 1500/1502 6000 BECMG 1502/1504 4000 BR PROB30 1504/1511 2000 BKN004 BECMG 1508/1510 6000 NSW BECMG 1510/1512 9000 BECMG 1517/1520 7000 BECMG 1520/1522 4000 BR MIFG BECMG 1522/1601 2000 BCFG PROB30 1600/1606 0400 FG VV001

4,000以上の空港の気象観測と天気予報(METAR報とTAF報)

利用可能な観測所は地図上に黄色い丸と赤い丸で示す。

丸の上にカーソルを重ねると観測所名を参照できる。

次にクリックすると気象観測と天気予報を参照できる。

マップの切り替え:黒色「×」印の緑ボタンをクリックして拡大、「-」印の緑ボタンをクリックして縮小、緑色の三角印をクリックして隣りの地図に切り替え


METAR-TAF: